sensor_id;sensor_type;location;lat;lon;timestamp;P1;durP1;ratioP1;P2;durP2;ratioP2
40595;SDS011;26304;48.794;9.820;2023-09-30T00:00:17;4.20;;;2.90;;
40595;SDS011;26304;48.794;9.820;2023-09-30T00:02:40;4.47;;;3.20;;
40595;SDS011;26304;48.794;9.820;2023-09-30T00:05:02;3.17;;;2.67;;
40595;SDS011;26304;48.794;9.820;2023-09-30T00:07:25;4.35;;;2.95;;
40595;SDS011;26304;48.794;9.820;2023-09-30T00:09:48;4.20;;;2.72;;
40595;SDS011;26304;48.794;9.820;2023-09-30T00:12:12;4.47;;;3.15;;
40595;SDS011;26304;48.794;9.820;2023-09-30T00:14:36;3.83;;;2.63;;
40595;SDS011;26304;48.794;9.820;2023-09-30T00:16:58;4.70;;;2.85;;
40595;SDS011;26304;48.794;9.820;2023-09-30T00:19:21;4.15;;;2.90;;
40595;SDS011;26304;48.794;9.820;2023-09-30T00:21:44;4.03;;;2.78;;
40595;SDS011;26304;48.794;9.820;2023-09-30T00:24:06;3.78;;;2.60;;
40595;SDS011;26304;48.794;9.820;2023-09-30T00:26:28;4.00;;;2.60;;
40595;SDS011;26304;48.794;9.820;2023-09-30T00:28:51;3.67;;;2.80;;
40595;SDS011;26304;48.794;9.820;2023-09-30T00:31:15;4.07;;;3.05;;
40595;SDS011;26304;48.794;9.820;2023-09-30T00:33:37;4.35;;;2.63;;
40595;SDS011;26304;48.794;9.820;2023-09-30T00:36:02;3.33;;;2.70;;
40595;SDS011;26304;48.794;9.820;2023-09-30T00:38:28;3.05;;;2.30;;
40595;SDS011;26304;48.794;9.820;2023-09-30T00:40:50;2.88;;;2.30;;
40595;SDS011;26304;48.794;9.820;2023-09-30T00:43:17;4.55;;;2.65;;
40595;SDS011;26304;48.794;9.820;2023-09-30T00:45:40;3.45;;;2.30;;
40595;SDS011;26304;48.794;9.820;2023-09-30T00:48:04;4.82;;;2.90;;
40595;SDS011;26304;48.794;9.820;2023-09-30T00:50:27;6.15;;;2.60;;
40595;SDS011;26304;48.794;9.820;2023-09-30T00:52:50;3.63;;;2.17;;
40595;SDS011;26304;48.794;9.820;2023-09-30T00:55:12;3.22;;;2.65;;
40595;SDS011;26304;48.794;9.820;2023-09-30T00:57:34;4.53;;;2.55;;
40595;SDS011;26304;48.794;9.820;2023-09-30T00:59:58;3.80;;;2.70;;
40595;SDS011;26304;48.794;9.820;2023-09-30T01:02:22;4.63;;;2.65;;
40595;SDS011;26304;48.794;9.820;2023-09-30T01:04:46;3.08;;;2.22;;
40595;SDS011;26304;48.794;9.820;2023-09-30T01:07:09;3.90;;;2.80;;
40595;SDS011;26304;48.794;9.820;2023-09-30T01:09:32;4.85;;;2.60;;
40595;SDS011;26304;48.794;9.820;2023-09-30T01:11:55;3.25;;;1.95;;
40595;SDS011;26304;48.794;9.820;2023-09-30T01:14:23;3.72;;;2.35;;
40595;SDS011;26304;48.794;9.820;2023-09-30T01:16:46;2.83;;;2.40;;
40595;SDS011;26304;48.794;9.820;2023-09-30T01:19:09;2.55;;;2.20;;
40595;SDS011;26304;48.794;9.820;2023-09-30T01:21:35;3.13;;;2.28;;
40595;SDS011;26304;48.794;9.820;2023-09-30T01:23:57;3.03;;;2.10;;
40595;SDS011;26304;48.794;9.820;2023-09-30T01:26:20;2.60;;;2.25;;
40595;SDS011;26304;48.794;9.820;2023-09-30T01:28:42;2.55;;;1.85;;
40595;SDS011;26304;48.794;9.820;2023-09-30T01:31:05;2.95;;;2.13;;
40595;SDS011;26304;48.794;9.820;2023-09-30T01:33:27;3.15;;;2.10;;
40595;SDS011;26304;48.794;9.820;2023-09-30T01:35:50;2.60;;;1.88;;
40595;SDS011;26304;48.794;9.820;2023-09-30T01:38:13;3.13;;;2.03;;
40595;SDS011;26304;48.794;9.820;2023-09-30T01:40:36;2.70;;;2.38;;
40595;SDS011;26304;48.794;9.820;2023-09-30T01:42:59;5.13;;;2.20;;
40595;SDS011;26304;48.794;9.820;2023-09-30T01:45:21;2.45;;;2.08;;
40595;SDS011;26304;48.794;9.820;2023-09-30T01:47:44;2.45;;;2.20;;
40595;SDS011;26304;48.794;9.820;2023-09-30T01:50:06;2.53;;;2.13;;
40595;SDS011;26304;48.794;9.820;2023-09-30T01:52:29;3.60;;;2.25;;
40595;SDS011;26304;48.794;9.820;2023-09-30T01:54:53;2.85;;;1.83;;
40595;SDS011;26304;48.794;9.820;2023-09-30T01:57:16;2.40;;;1.85;;
40595;SDS011;26304;48.794;9.820;2023-09-30T01:59:38;2.10;;;1.88;;
40595;SDS011;26304;48.794;9.820;2023-09-30T02:02:01;2.65;;;1.92;;
40595;SDS011;26304;48.794;9.820;2023-09-30T02:04:23;2.22;;;1.90;;
40595;SDS011;26304;48.794;9.820;2023-09-30T02:06:45;3.35;;;2.35;;
40595;SDS011;26304;48.794;9.820;2023-09-30T02:09:08;2.60;;;2.20;;
40595;SDS011;26304;48.794;9.820;2023-09-30T02:11:32;2.45;;;2.05;;
40595;SDS011;26304;48.794;9.820;2023-09-30T02:13:54;2.70;;;2.17;;
40595;SDS011;26304;48.794;9.820;2023-09-30T02:16:16;3.05;;;2.38;;
40595;SDS011;26304;48.794;9.820;2023-09-30T02:18:39;2.45;;;2.15;;
40595;SDS011;26304;48.794;9.820;2023-09-30T02:21:02;2.30;;;1.98;;
40595;SDS011;26304;48.794;9.820;2023-09-30T02:23:25;2.78;;;2.58;;
40595;SDS011;26304;48.794;9.820;2023-09-30T02:25:47;3.13;;;2.20;;
40595;SDS011;26304;48.794;9.820;2023-09-30T02:28:11;2.97;;;2.25;;
40595;SDS011;26304;48.794;9.820;2023-09-30T02:30:33;2.60;;;2.40;;
40595;SDS011;26304;48.794;9.820;2023-09-30T02:32:56;2.45;;;2.25;;
40595;SDS011;26304;48.794;9.820;2023-09-30T02:35:19;3.53;;;2.65;;
40595;SDS011;26304;48.794;9.820;2023-09-30T02:37:41;3.00;;;2.30;;
40595;SDS011;26304;48.794;9.820;2023-09-30T02:40:04;2.95;;;2.38;;
40595;SDS011;26304;48.794;9.820;2023-09-30T02:42:30;3.25;;;2.33;;
40595;SDS011;26304;48.794;9.820;2023-09-30T02:44:53;2.38;;;1.85;;
40595;SDS011;26304;48.794;9.820;2023-09-30T02:47:16;2.47;;;2.08;;
40595;SDS011;26304;48.794;9.820;2023-09-30T02:49:38;2.30;;;2.10;;
40595;SDS011;26304;48.794;9.820;2023-09-30T02:52:01;3.40;;;2.33;;
40595;SDS011;26304;48.794;9.820;2023-09-30T02:54:23;2.35;;;2.10;;
40595;SDS011;26304;48.794;9.820;2023-09-30T02:56:45;4.93;;;2.38;;
40595;SDS011;26304;48.794;9.820;2023-09-30T02:59:08;3.88;;;2.90;;
40595;SDS011;26304;48.794;9.820;2023-09-30T03:01:32;2.90;;;2.67;;
40595;SDS011;26304;48.794;9.820;2023-09-30T03:03:53;4.03;;;3.63;;
40595;SDS011;26304;48.794;9.820;2023-09-30T03:06:16;4.00;;;3.13;;
40595;SDS011;26304;48.794;9.820;2023-09-30T03:08:39;3.55;;;3.25;;
40595;SDS011;26304;48.794;9.820;2023-09-30T03:11:01;3.40;;;3.10;;
40595;SDS011;26304;48.794;9.820;2023-09-30T03:13:24;4.47;;;3.28;;
40595;SDS011;26304;48.794;9.820;2023-09-30T03:15:47;4.43;;;2.97;;
40595;SDS011;26304;48.794;9.820;2023-09-30T03:18:14;3.30;;;2.88;;
40595;SDS011;26304;48.794;9.820;2023-09-30T03:20:38;3.17;;;2.88;;
40595;SDS011;26304;48.794;9.820;2023-09-30T03:23:01;3.25;;;2.92;;
40595;SDS011;26304;48.794;9.820;2023-09-30T03:25:25;3.20;;;2.90;;
40595;SDS011;26304;48.794;9.820;2023-09-30T03:27:48;3.75;;;3.05;;
40595;SDS011;26304;48.794;9.820;2023-09-30T03:30:11;3.22;;;2.92;;
40595;SDS011;26304;48.794;9.820;2023-09-30T03:32:34;3.78;;;2.67;;
40595;SDS011;26304;48.794;9.820;2023-09-30T03:34:58;5.60;;;2.80;;
40595;SDS011;26304;48.794;9.820;2023-09-30T03:37:21;4.65;;;3.33;;
40595;SDS011;26304;48.794;9.820;2023-09-30T03:39:45;3.85;;;3.15;;
40595;SDS011;26304;48.794;9.820;2023-09-30T03:42:10;3.30;;;3.00;;
40595;SDS011;26304;48.794;9.820;2023-09-30T03:44:32;2.63;;;2.42;;
40595;SDS011;26304;48.794;9.820;2023-09-30T03:46:55;3.03;;;2.72;;
40595;SDS011;26304;48.794;9.820;2023-09-30T03:49:17;3.33;;;2.35;;
40595;SDS011;26304;48.794;9.820;2023-09-30T03:51:43;2.85;;;2.60;;
40595;SDS011;26304;48.794;9.820;2023-09-30T03:54:05;3.63;;;2.35;;
40595;SDS011;26304;48.794;9.820;2023-09-30T03:56:29;3.38;;;2.38;;
40595;SDS011;26304;48.794;9.820;2023-09-30T03:58:52;2.95;;;2.30;;
40595;SDS011;26304;48.794;9.820;2023-09-30T04:01:14;3.88;;;2.35;;
40595;SDS011;26304;48.794;9.820;2023-09-30T04:03:38;3.05;;;2.60;;
40595;SDS011;26304;48.794;9.820;2023-09-30T04:06:01;4.47;;;2.70;;
40595;SDS011;26304;48.794;9.820;2023-09-30T04:08:25;2.58;;;2.38;;
40595;SDS011;26304;48.794;9.820;2023-09-30T04:10:48;5.68;;;2.60;;
40595;SDS011;26304;48.794;9.820;2023-09-30T04:13:11;2.67;;;2.47;;
40595;SDS011;26304;48.794;9.820;2023-09-30T04:15:33;4.55;;;2.10;;
40595;SDS011;26304;48.794;9.820;2023-09-30T04:17:57;3.88;;;2.10;;
40595;SDS011;26304;48.794;9.820;2023-09-30T04:20:19;2.80;;;2.25;;
40595;SDS011;26304;48.794;9.820;2023-09-30T04:22:44;3.72;;;2.13;;
40595;SDS011;26304;48.794;9.820;2023-09-30T04:25:10;4.03;;;2.20;;
40595;SDS011;26304;48.794;9.820;2023-09-30T04:27:34;4.05;;;2.40;;
40595;SDS011;26304;48.794;9.820;2023-09-30T04:29:56;4.20;;;2.15;;
40595;SDS011;26304;48.794;9.820;2023-09-30T04:32:19;2.88;;;2.17;;
40595;SDS011;26304;48.794;9.820;2023-09-30T04:34:42;3.78;;;2.15;;
40595;SDS011;26304;48.794;9.820;2023-09-30T04:37:04;5.88;;;2.45;;
40595;SDS011;26304;48.794;9.820;2023-09-30T04:39:30;3.95;;;2.30;;
40595;SDS011;26304;48.794;9.820;2023-09-30T04:41:57;4.45;;;2.10;;
40595;SDS011;26304;48.794;9.820;2023-09-30T04:44:22;8.50;;;2.22;;
40595;SDS011;26304;48.794;9.820;2023-09-30T04:46:47;2.95;;;2.47;;
40595;SDS011;26304;48.794;9.820;2023-09-30T04:49:10;3.65;;;2.28;;
40595;SDS011;26304;48.794;9.820;2023-09-30T04:51:32;3.78;;;2.03;;
40595;SDS011;26304;48.794;9.820;2023-09-30T04:53:55;6.80;;;2.20;;
40595;SDS011;26304;48.794;9.820;2023-09-30T04:56:18;2.75;;;2.20;;
40595;SDS011;26304;48.794;9.820;2023-09-30T04:58:42;2.60;;;2.40;;
40595;SDS011;26304;48.794;9.820;2023-09-30T05:01:05;2.20;;;1.95;;
40595;SDS011;26304;48.794;9.820;2023-09-30T05:03:30;3.47;;;2.17;;
40595;SDS011;26304;48.794;9.820;2023-09-30T05:05:52;2.92;;;2.25;;
40595;SDS011;26304;48.794;9.820;2023-09-30T05:08:16;2.72;;;2.03;;
40595;SDS011;26304;48.794;9.820;2023-09-30T05:10:38;2.92;;;1.75;;
40595;SDS011;26304;48.794;9.820;2023-09-30T05:13:01;2.95;;;2.33;;
40595;SDS011;26304;48.794;9.820;2023-09-30T05:15:25;3.97;;;2.15;;
40595;SDS011;26304;48.794;9.820;2023-09-30T05:17:50;9.48;;;2.92;;
40595;SDS011;26304;48.794;9.820;2023-09-30T05:20:12;6.60;;;2.28;;
40595;SDS011;26304;48.794;9.820;2023-09-30T05:22:38;5.03;;;2.70;;
40595;SDS011;26304;48.794;9.820;2023-09-30T05:25:01;6.90;;;2.40;;
40595;SDS011;26304;48.794;9.820;2023-09-30T05:27:24;4.93;;;2.47;;
40595;SDS011;26304;48.794;9.820;2023-09-30T05:29:46;5.32;;;2.47;;
40595;SDS011;26304;48.794;9.820;2023-09-30T05:32:12;3.28;;;2.17;;
40595;SDS011;26304;48.794;9.820;2023-09-30T05:34:35;3.65;;;2.28;;
40595;SDS011;26304;48.794;9.820;2023-09-30T05:36:58;5.32;;;2.75;;
40595;SDS011;26304;48.794;9.820;2023-09-30T05:39:20;4.22;;;2.72;;
40595;SDS011;26304;48.794;9.820;2023-09-30T05:41:43;4.78;;;2.28;;
40595;SDS011;26304;48.794;9.820;2023-09-30T05:44:05;5.43;;;2.30;;
40595;SDS011;26304;48.794;9.820;2023-09-30T05:46:30;5.38;;;2.30;;
40595;SDS011;26304;48.794;9.820;2023-09-30T05:48:54;4.38;;;2.30;;
40595;SDS011;26304;48.794;9.820;2023-09-30T05:51:16;3.92;;;2.30;;
40595;SDS011;26304;48.794;9.820;2023-09-30T05:53:39;2.28;;;2.08;;
40595;SDS011;26304;48.794;9.820;2023-09-30T05:56:02;2.70;;;2.10;;
40595;SDS011;26304;48.794;9.820;2023-09-30T05:58:25;2.97;;;2.08;;
40595;SDS011;26304;48.794;9.820;2023-09-30T06:00:47;3.03;;;2.70;;
40595;SDS011;26304;48.794;9.820;2023-09-30T06:03:11;2.85;;;2.33;;
40595;SDS011;26304;48.794;9.820;2023-09-30T06:05:38;4.13;;;2.28;;
40595;SDS011;26304;48.794;9.820;2023-09-30T06:08:02;3.90;;;2.25;;
40595;SDS011;26304;48.794;9.820;2023-09-30T06:10:25;2.58;;;1.90;;
40595;SDS011;26304;48.794;9.820;2023-09-30T06:12:48;3.45;;;2.47;;
40595;SDS011;26304;48.794;9.820;2023-09-30T06:15:15;3.90;;;2.33;;
40595;SDS011;26304;48.794;9.820;2023-09-30T06:17:42;4.10;;;2.10;;
40595;SDS011;26304;48.794;9.820;2023-09-30T06:20:05;5.38;;;2.30;;
40595;SDS011;26304;48.794;9.820;2023-09-30T06:22:31;4.72;;;2.45;;
40595;SDS011;26304;48.794;9.820;2023-09-30T06:24:54;3.38;;;2.03;;
40595;SDS011;26304;48.794;9.820;2023-09-30T06:27:16;2.10;;;1.90;;
40595;SDS011;26304;48.794;9.820;2023-09-30T06:29:39;2.65;;;2.13;;
40595;SDS011;26304;48.794;9.820;2023-09-30T06:32:03;3.42;;;2.28;;
40595;SDS011;26304;48.794;9.820;2023-09-30T06:34:26;2.75;;;2.08;;
40595;SDS011;26304;48.794;9.820;2023-09-30T06:36:48;2.80;;;2.28;;
40595;SDS011;26304;48.794;9.820;2023-09-30T06:39:12;2.35;;;1.85;;
40595;SDS011;26304;48.794;9.820;2023-09-30T06:41:34;2.20;;;2.00;;
40595;SDS011;26304;48.794;9.820;2023-09-30T06:43:57;3.33;;;2.00;;
40595;SDS011;26304;48.794;9.820;2023-09-30T06:46:20;2.78;;;2.08;;
40595;SDS011;26304;48.794;9.820;2023-09-30T06:48:42;2.50;;;2.15;;
40595;SDS011;26304;48.794;9.820;2023-09-30T06:51:05;2.65;;;1.80;;
40595;SDS011;26304;48.794;9.820;2023-09-30T06:53:28;2.10;;;1.90;;
40595;SDS011;26304;48.794;9.820;2023-09-30T06:55:52;2.10;;;1.90;;
40595;SDS011;26304;48.794;9.820;2023-09-30T06:58:14;2.55;;;1.70;;
40595;SDS011;26304;48.794;9.820;2023-09-30T07:00:41;2.03;;;1.73;;
40595;SDS011;26304;48.794;9.820;2023-09-30T07:03:04;3.40;;;2.38;;
40595;SDS011;26304;48.794;9.820;2023-09-30T07:05:27;2.78;;;1.98;;
40595;SDS011;26304;48.794;9.820;2023-09-30T07:07:50;2.45;;;2.00;;
40595;SDS011;26304;48.794;9.820;2023-09-30T07:10:12;2.38;;;2.17;;
40595;SDS011;26304;48.794;9.820;2023-09-30T07:12:36;2.30;;;2.10;;
40595;SDS011;26304;48.794;9.820;2023-09-30T07:15:00;2.22;;;1.80;;
40595;SDS011;26304;48.794;9.820;2023-09-30T07:17:22;2.63;;;1.98;;
40595;SDS011;26304;48.794;9.820;2023-09-30T07:19:45;2.40;;;2.20;;
40595;SDS011;26304;48.794;9.820;2023-09-30T07:22:07;2.30;;;2.10;;
40595;SDS011;26304;48.794;9.820;2023-09-30T07:24:29;2.10;;;1.90;;
40595;SDS011;26304;48.794;9.820;2023-09-30T07:26:52;1.90;;;1.77;;
40595;SDS011;26304;48.794;9.820;2023-09-30T07:29:18;2.42;;;2.20;;
40595;SDS011;26304;48.794;9.820;2023-09-30T07:31:41;2.15;;;1.85;;
40595;SDS011;26304;48.794;9.820;2023-09-30T07:34:03;2.25;;;2.05;;
40595;SDS011;26304;48.794;9.820;2023-09-30T07:36:25;2.33;;;2.17;;
40595;SDS011;26304;48.794;9.820;2023-09-30T07:38:48;2.17;;;1.73;;
40595;SDS011;26304;48.794;9.820;2023-09-30T07:41:10;2.20;;;2.00;;
40595;SDS011;26304;48.794;9.820;2023-09-30T07:43:33;2.65;;;1.95;;
40595;SDS011;26304;48.794;9.820;2023-09-30T07:45:57;1.90;;;1.80;;
40595;SDS011;26304;48.794;9.820;2023-09-30T07:48:20;1.92;;;1.73;;
40595;SDS011;26304;48.794;9.820;2023-09-30T07:50:42;2.65;;;2.17;;
40595;SDS011;26304;48.794;9.820;2023-09-30T07:53:04;2.30;;;1.85;;
40595;SDS011;26304;48.794;9.820;2023-09-30T07:55:27;3.58;;;2.30;;
40595;SDS011;26304;48.794;9.820;2023-09-30T07:57:49;2.33;;;1.92;;
40595;SDS011;26304;48.794;9.820;2023-09-30T08:00:12;2.45;;;2.22;;
40595;SDS011;26304;48.794;9.820;2023-09-30T08:02:38;2.70;;;2.20;;
40595;SDS011;26304;48.794;9.820;2023-09-30T08:05:00;2.08;;;1.90;;
40595;SDS011;26304;48.794;9.820;2023-09-30T08:07:23;2.25;;;2.00;;
40595;SDS011;26304;48.794;9.820;2023-09-30T08:09:45;1.75;;;1.65;;
40595;SDS011;26304;48.794;9.820;2023-09-30T08:12:09;2.50;;;2.25;;
40595;SDS011;26304;48.794;9.820;2023-09-30T08:14:31;3.58;;;2.20;;
40595;SDS011;26304;48.794;9.820;2023-09-30T08:16:54;1.60;;;1.50;;
40595;SDS011;26304;48.794;9.820;2023-09-30T08:19:18;2.33;;;2.10;;
40595;SDS011;26304;48.794;9.820;2023-09-30T08:21:41;4.13;;;2.10;;
40595;SDS011;26304;48.794;9.820;2023-09-30T08:24:04;2.50;;;2.30;;
40595;SDS011;26304;48.794;9.820;2023-09-30T08:26:26;2.38;;;2.20;;
40595;SDS011;26304;48.794;9.820;2023-09-30T08:28:49;2.70;;;2.22;;
40595;SDS011;26304;48.794;9.820;2023-09-30T08:31:11;2.30;;;2.10;;
40595;SDS011;26304;48.794;9.820;2023-09-30T08:33:34;2.60;;;2.40;;
40595;SDS011;26304;48.794;9.820;2023-09-30T08:36:02;2.35;;;2.15;;
40595;SDS011;26304;48.794;9.820;2023-09-30T08:38:28;2.33;;;2.13;;
40595;SDS011;26304;48.794;9.820;2023-09-30T08:40:50;2.85;;;2.30;;
40595;SDS011;26304;48.794;9.820;2023-09-30T08:43:14;2.30;;;2.10;;
40595;SDS011;26304;48.794;9.820;2023-09-30T08:45:41;2.40;;;2.20;;
40595;SDS011;26304;48.794;9.820;2023-09-30T08:48:07;2.60;;;2.30;;
40595;SDS011;26304;48.794;9.820;2023-09-30T08:50:29;2.40;;;2.20;;
40595;SDS011;26304;48.794;9.820;2023-09-30T08:52:54;2.70;;;2.50;;
40595;SDS011;26304;48.794;9.820;2023-09-30T08:55:17;2.50;;;2.20;;
40595;SDS011;26304;48.794;9.820;2023-09-30T08:57:40;2.92;;;2.50;;
40595;SDS011;26304;48.794;9.820;2023-09-30T09:00:04;2.83;;;2.63;;
40595;SDS011;26304;48.794;9.820;2023-09-30T09:02:28;2.17;;;1.98;;
40595;SDS011;26304;48.794;9.820;2023-09-30T09:04:50;2.83;;;2.20;;
40595;SDS011;26304;48.794;9.820;2023-09-30T09:07:13;2.72;;;2.30;;
40595;SDS011;26304;48.794;9.820;2023-09-30T09:09:37;2.50;;;2.30;;
40595;SDS011;26304;48.794;9.820;2023-09-30T09:11:59;2.65;;;2.22;;
40595;SDS011;26304;48.794;9.820;2023-09-30T09:14:28;3.25;;;2.38;;
40595;SDS011;26304;48.794;9.820;2023-09-30T09:16:58;3.30;;;2.35;;
40595;SDS011;26304;48.794;9.820;2023-09-30T09:19:21;3.42;;;2.50;;
40595;SDS011;26304;48.794;9.820;2023-09-30T09:21:52;4.05;;;2.38;;
40595;SDS011;26304;48.794;9.820;2023-09-30T09:24:26;2.40;;;2.17;;
40595;SDS011;26304;48.794;9.820;2023-09-30T09:26:50;3.50;;;2.10;;
40595;SDS011;26304;48.794;9.820;2023-09-30T09:29:12;3.70;;;2.55;;
40595;SDS011;26304;48.794;9.820;2023-09-30T09:31:35;3.45;;;2.80;;
40595;SDS011;26304;48.794;9.820;2023-09-30T09:33:58;8.07;;;4.47;;
40595;SDS011;26304;48.794;9.820;2023-09-30T09:36:22;7.18;;;4.55;;
40595;SDS011;26304;48.794;9.820;2023-09-30T09:39:00;9.85;;;5.65;;
40595;SDS011;26304;48.794;9.820;2023-09-30T09:41:23;15.20;;;6.57;;
40595;SDS011;26304;48.794;9.820;2023-09-30T09:43:49;14.63;;;6.85;;
40595;SDS011;26304;48.794;9.820;2023-09-30T09:46:12;14.52;;;6.15;;
40595;SDS011;26304;48.794;9.820;2023-09-30T09:48:35;14.38;;;7.15;;
40595;SDS011;26304;48.794;9.820;2023-09-30T09:50:57;16.92;;;6.80;;
40595;SDS011;26304;48.794;9.820;2023-09-30T09:53:21;14.23;;;6.53;;
40595;SDS011;26304;48.794;9.820;2023-09-30T09:55:44;12.75;;;6.50;;
40595;SDS011;26304;48.794;9.820;2023-09-30T09:58:08;16.42;;;7.70;;
40595;SDS011;26304;48.794;9.820;2023-09-30T10:00:33;16.02;;;6.05;;
40595;SDS011;26304;48.794;9.820;2023-09-30T10:02:57;13.93;;;6.43;;
40595;SDS011;26304;48.794;9.820;2023-09-30T10:05:20;15.77;;;6.13;;
40595;SDS011;26304;48.794;9.820;2023-09-30T10:07:44;13.07;;;5.80;;
40595;SDS011;26304;48.794;9.820;2023-09-30T10:10:13;11.18;;;5.43;;
40595;SDS011;26304;48.794;9.820;2023-09-30T10:12:38;12.23;;;5.43;;
40595;SDS011;26304;48.794;9.820;2023-09-30T10:15:00;8.50;;;5.45;;
40595;SDS011;26304;48.794;9.820;2023-09-30T10:20:27;11.32;;;6.55;;
40595;SDS011;26304;48.794;9.820;2023-09-30T10:22:56;11.45;;;5.97;;
40595;SDS011;26304;48.794;9.820;2023-09-30T10:25:42;9.60;;;5.35;;
40595;SDS011;26304;48.794;9.820;2023-09-30T10:31:07;9.18;;;5.95;;
40595;SDS011;26304;48.794;9.820;2023-09-30T10:33:31;11.30;;;5.57;;
40595;SDS011;26304;48.794;9.820;2023-09-30T10:35:54;10.05;;;5.22;;
40595;SDS011;26304;48.794;9.820;2023-09-30T10:40:58;11.15;;;5.22;;
40595;SDS011;26304;48.794;9.820;2023-09-30T10:43:28;12.38;;;5.13;;
40595;SDS011;26304;48.794;9.820;2023-09-30T10:45:51;8.45;;;4.80;;
40595;SDS011;26304;48.794;9.820;2023-09-30T10:51:00;7.40;;;4.53;;
40595;SDS011;26304;48.794;9.820;2023-09-30T10:53:24;9.88;;;4.82;;
40595;SDS011;26304;48.794;9.820;2023-09-30T10:55:46;8.80;;;4.65;;
40595;SDS011;26304;48.794;9.820;2023-09-30T10:58:15;7.20;;;4.68;;
40595;SDS011;26304;48.794;9.820;2023-09-30T11:00:37;8.60;;;4.70;;
40595;SDS011;26304;48.794;9.820;2023-09-30T11:03:00;7.35;;;4.68;;
40595;SDS011;26304;48.794;9.820;2023-09-30T11:05:22;7.00;;;4.85;;
40595;SDS011;26304;48.794;9.820;2023-09-30T11:07:47;9.82;;;5.30;;
40595;SDS011;26304;48.794;9.820;2023-09-30T11:10:11;7.38;;;4.70;;
40595;SDS011;26304;48.794;9.820;2023-09-30T11:12:38;8.05;;;4.97;;
40595;SDS011;26304;48.794;9.820;2023-09-30T11:15:01;6.80;;;4.70;;
40595;SDS011;26304;48.794;9.820;2023-09-30T11:17:24;8.18;;;4.65;;
40595;SDS011;26304;48.794;9.820;2023-09-30T11:19:47;5.57;;;4.47;;
40595;SDS011;26304;48.794;9.820;2023-09-30T11:22:10;7.00;;;4.95;;
40595;SDS011;26304;48.794;9.820;2023-09-30T11:24:36;7.53;;;4.72;;
40595;SDS011;26304;48.794;9.820;2023-09-30T11:26:58;8.50;;;5.22;;
40595;SDS011;26304;48.794;9.820;2023-09-30T11:29:21;5.60;;;4.68;;
40595;SDS011;26304;48.794;9.820;2023-09-30T11:31:44;6.50;;;4.65;;
40595;SDS011;26304;48.794;9.820;2023-09-30T11:34:08;7.60;;;4.78;;
40595;SDS011;26304;48.794;9.820;2023-09-30T11:36:33;6.20;;;4.90;;
40595;SDS011;26304;48.794;9.820;2023-09-30T11:38:57;6.43;;;4.38;;
40595;SDS011;26304;48.794;9.820;2023-09-30T11:41:31;5.88;;;4.60;;
40595;SDS011;26304;48.794;9.820;2023-09-30T11:43:58;7.13;;;4.50;;
40595;SDS011;26304;48.794;9.820;2023-09-30T11:46:22;7.53;;;4.95;;
40595;SDS011;26304;48.794;9.820;2023-09-30T11:48:55;6.38;;;4.95;;
40595;SDS011;26304;48.794;9.820;2023-09-30T11:51:18;6.47;;;4.93;;
40595;SDS011;26304;48.794;9.820;2023-09-30T11:53:41;5.78;;;4.72;;
40595;SDS011;26304;48.794;9.820;2023-09-30T11:56:03;6.03;;;4.53;;
40595;SDS011;26304;48.794;9.820;2023-09-30T11:58:29;6.10;;;4.50;;
40595;SDS011;26304;48.794;9.820;2023-09-30T12:00:53;7.60;;;4.88;;
40595;SDS011;26304;48.794;9.820;2023-09-30T12:03:18;6.05;;;4.75;;
40595;SDS011;26304;48.794;9.820;2023-09-30T12:05:41;5.85;;;4.75;;
40595;SDS011;26304;48.794;9.820;2023-09-30T12:08:06;7.10;;;5.38;;
40595;SDS011;26304;48.794;9.820;2023-09-30T12:10:29;6.18;;;4.97;;
40595;SDS011;26304;48.794;9.820;2023-09-30T12:12:52;5.60;;;4.70;;
40595;SDS011;26304;48.794;9.820;2023-09-30T12:15:16;7.50;;;5.50;;
40595;SDS011;26304;48.794;9.820;2023-09-30T12:17:43;5.97;;;4.80;;
40595;SDS011;26304;48.794;9.820;2023-09-30T12:20:06;7.22;;;4.97;;
40595;SDS011;26304;48.794;9.820;2023-09-30T12:22:29;6.55;;;5.03;;
40595;SDS011;26304;48.794;9.820;2023-09-30T12:24:51;5.55;;;5.00;;
40595;SDS011;26304;48.794;9.820;2023-09-30T12:27:14;7.97;;;5.28;;
40595;SDS011;26304;48.794;9.820;2023-09-30T12:29:38;6.18;;;4.85;;
40595;SDS011;26304;48.794;9.820;2023-09-30T12:32:02;6.28;;;5.30;;
40595;SDS011;26304;48.794;9.820;2023-09-30T12:34:26;6.22;;;5.18;;
40595;SDS011;26304;48.794;9.820;2023-09-30T12:36:48;5.70;;;5.05;;
40595;SDS011;26304;48.794;9.820;2023-09-30T12:39:11;7.03;;;5.47;;
40595;SDS011;26304;48.794;9.820;2023-09-30T12:41:33;5.82;;;4.57;;
40595;SDS011;26304;48.794;9.820;2023-09-30T12:43:56;6.50;;;5.20;;
40595;SDS011;26304;48.794;9.820;2023-09-30T12:46:18;5.80;;;4.80;;
40595;SDS011;26304;48.794;9.820;2023-09-30T12:48:42;5.65;;;5.05;;
40595;SDS011;26304;48.794;9.820;2023-09-30T12:51:05;6.50;;;5.65;;
40595;SDS011;26304;48.794;9.820;2023-09-30T12:53:29;5.88;;;5.28;;
40595;SDS011;26304;48.794;9.820;2023-09-30T12:55:53;6.57;;;5.50;;
40595;SDS011;26304;48.794;9.820;2023-09-30T12:58:15;6.43;;;5.68;;
40595;SDS011;26304;48.794;9.820;2023-09-30T13:00:38;6.57;;;5.72;;
40595;SDS011;26304;48.794;9.820;2023-09-30T13:03:01;6.82;;;4.95;;
40595;SDS011;26304;48.794;9.820;2023-09-30T13:05:25;8.27;;;4.97;;
40595;SDS011;26304;48.794;9.820;2023-09-30T13:07:48;6.80;;;5.03;;
40595;SDS011;26304;48.794;9.820;2023-09-30T13:10:11;6.40;;;5.25;;
40595;SDS011;26304;48.794;9.820;2023-09-30T13:12:34;7.05;;;5.20;;
40595;SDS011;26304;48.794;9.820;2023-09-30T13:14:56;6.90;;;5.80;;
40595;SDS011;26304;48.794;9.820;2023-09-30T13:17:18;6.07;;;5.28;;
40595;SDS011;26304;48.794;9.820;2023-09-30T13:19:41;6.43;;;5.20;;
40595;SDS011;26304;48.794;9.820;2023-09-30T13:22:05;6.97;;;5.68;;
40595;SDS011;26304;48.794;9.820;2023-09-30T13:24:27;6.63;;;5.22;;
40595;SDS011;26304;48.794;9.820;2023-09-30T13:26:50;6.68;;;5.32;;
40595;SDS011;26304;48.794;9.820;2023-09-30T13:29:13;7.47;;;5.65;;
40595;SDS011;26304;48.794;9.820;2023-09-30T13:31:37;7.13;;;5.50;;
40595;SDS011;26304;48.794;9.820;2023-09-30T13:33:59;7.82;;;5.68;;
40595;SDS011;26304;48.794;9.820;2023-09-30T13:36:23;9.30;;;5.30;;
40595;SDS011;26304;48.794;9.820;2023-09-30T13:38:46;7.53;;;5.47;;
40595;SDS011;26304;48.794;9.820;2023-09-30T13:41:09;9.07;;;6.22;;
40595;SDS011;26304;48.794;9.820;2023-09-30T13:43:32;7.72;;;5.75;;
40595;SDS011;26304;48.794;9.820;2023-09-30T13:45:54;9.75;;;5.57;;
40595;SDS011;26304;48.794;9.820;2023-09-30T13:48:17;8.15;;;5.53;;
40595;SDS011;26304;48.794;9.820;2023-09-30T13:50:39;9.27;;;5.63;;
40595;SDS011;26304;48.794;9.820;2023-09-30T13:53:02;6.22;;;5.22;;
40595;SDS011;26304;48.794;9.820;2023-09-30T13:55:27;8.93;;;5.85;;
40595;SDS011;26304;48.794;9.820;2023-09-30T13:57:49;8.35;;;5.68;;
40595;SDS011;26304;48.794;9.820;2023-09-30T14:00:12;7.00;;;5.65;;
40595;SDS011;26304;48.794;9.820;2023-09-30T14:02:35;7.30;;;6.18;;
40595;SDS011;26304;48.794;9.820;2023-09-30T14:04:58;6.43;;;5.40;;
40595;SDS011;26304;48.794;9.820;2023-09-30T14:07:20;6.97;;;5.82;;
40595;SDS011;26304;48.794;9.820;2023-09-30T14:09:44;7.72;;;5.65;;
40595;SDS011;26304;48.794;9.820;2023-09-30T14:12:07;7.93;;;5.32;;
40595;SDS011;26304;48.794;9.820;2023-09-30T14:14:30;6.35;;;5.15;;
40595;SDS011;26304;48.794;9.820;2023-09-30T14:16:54;10.20;;;5.45;;
40595;SDS011;26304;48.794;9.820;2023-09-30T14:19:16;8.40;;;5.40;;
40595;SDS011;26304;48.794;9.820;2023-09-30T14:21:39;8.13;;;5.40;;
40595;SDS011;26304;48.794;9.820;2023-09-30T14:24:01;11.27;;;5.53;;
40595;SDS011;26304;48.794;9.820;2023-09-30T14:26:23;9.63;;;5.55;;
40595;SDS011;26304;48.794;9.820;2023-09-30T14:28:47;10.30;;;5.63;;
40595;SDS011;26304;48.794;9.820;2023-09-30T14:31:09;11.93;;;5.50;;
40595;SDS011;26304;48.794;9.820;2023-09-30T14:33:32;9.50;;;5.25;;
40595;SDS011;26304;48.794;9.820;2023-09-30T14:35:54;7.35;;;5.30;;